sensor_id;sensor_type;location;lat;lon;timestamp;P1;durP1;ratioP1;P2;durP2;ratioP2
29254;SDS011;16277;48.890;2.306;2022-07-25T00:05:00;4.00;;;3.70;;
29254;SDS011;16277;48.890;2.306;2022-07-25T00:20:06;3.97;;;3.87;;
29254;SDS011;16277;48.890;2.306;2022-07-25T00:35:11;4.27;;;4.17;;
29254;SDS011;16277;48.890;2.306;2022-07-25T00:50:15;4.50;;;4.30;;
29254;SDS011;16277;48.890;2.306;2022-07-25T01:05:20;4.37;;;4.17;;
29254;SDS011;16277;48.890;2.306;2022-07-25T01:20:25;4.93;;;4.63;;
29254;SDS011;16277;48.890;2.306;2022-07-25T01:35:31;4.83;;;4.53;;
29254;SDS011;16277;48.890;2.306;2022-07-25T01:50:35;4.93;;;4.70;;
29254;SDS011;16277;48.890;2.306;2022-07-25T02:05:40;3.60;;;3.37;;
29254;SDS011;16277;48.890;2.306;2022-07-25T02:20:44;3.93;;;3.63;;
29254;SDS011;16277;48.890;2.306;2022-07-25T02:35:49;4.53;;;2.20;;
29254;SDS011;16277;48.890;2.306;2022-07-25T02:50:53;8.37;;;2.37;;
29254;SDS011;16277;48.890;2.306;2022-07-25T03:05:58;1.73;;;1.73;;
29254;SDS011;16277;48.890;2.306;2022-07-25T03:21:02;1.60;;;1.50;;
29254;SDS011;16277;48.890;2.306;2022-07-25T03:36:07;1.20;;;1.20;;
29254;SDS011;16277;48.890;2.306;2022-07-25T03:51:12;1.67;;;1.57;;
29254;SDS011;16277;48.890;2.306;2022-07-25T04:06:17;1.10;;;1.10;;
29254;SDS011;16277;48.890;2.306;2022-07-25T04:21:21;5.93;;;1.20;;
29254;SDS011;16277;48.890;2.306;2022-07-25T04:36:26;1.67;;;1.17;;
29254;SDS011;16277;48.890;2.306;2022-07-25T04:51:31;6.53;;;1.43;;
29254;SDS011;16277;48.890;2.306;2022-07-25T05:06:35;1.80;;;1.70;;
29254;SDS011;16277;48.890;2.306;2022-07-25T05:21:40;6.23;;;2.00;;
29254;SDS011;16277;48.890;2.306;2022-07-25T05:36:44;3.60;;;1.40;;
29254;SDS011;16277;48.890;2.306;2022-07-25T05:51:50;5.33;;;1.60;;
29254;SDS011;16277;48.890;2.306;2022-07-25T06:06:54;1.70;;;1.60;;
29254;SDS011;16277;48.890;2.306;2022-07-25T06:21:59;2.43;;;2.03;;
29254;SDS011;16277;48.890;2.306;2022-07-25T06:37:03;4.60;;;2.63;;
29254;SDS011;16277;48.890;2.306;2022-07-25T06:52:08;10.23;;;3.97;;
29254;SDS011;16277;48.890;2.306;2022-07-25T07:07:12;8.47;;;3.07;;
29254;SDS011;16277;48.890;2.306;2022-07-25T07:22:18;7.13;;;2.30;;
29254;SDS011;16277;48.890;2.306;2022-07-25T07:37:24;14.40;;;3.17;;
29254;SDS011;16277;48.890;2.306;2022-07-25T07:52:35;3.43;;;1.60;;
29254;SDS011;16277;48.890;2.306;2022-07-25T08:07:39;5.80;;;1.40;;
29254;SDS011;16277;48.890;2.306;2022-07-25T08:22:44;4.43;;;1.93;;
29254;SDS011;16277;48.890;2.306;2022-07-25T08:37:55;4.17;;;1.13;;
29254;SDS011;16277;48.890;2.306;2022-07-25T08:53:00;2.03;;;1.20;;
29254;SDS011;16277;48.890;2.306;2022-07-25T09:08:24;2.07;;;1.30;;
29254;SDS011;16277;48.890;2.306;2022-07-25T09:23:29;1.37;;;1.03;;
29254;SDS011;16277;48.890;2.306;2022-07-25T09:38:35;1.27;;;1.27;;
29254;SDS011;16277;48.890;2.306;2022-07-25T09:53:40;2.70;;;0.70;;
29254;SDS011;16277;48.890;2.306;2022-07-25T10:08:45;2.67;;;0.90;;
29254;SDS011;16277;48.890;2.306;2022-07-25T10:23:58;1.80;;;1.10;;
29254;SDS011;16277;48.890;2.306;2022-07-25T10:39:07;4.33;;;2.27;;
29254;SDS011;16277;48.890;2.306;2022-07-25T10:54:13;0.80;;;0.80;;
29254;SDS011;16277;48.890;2.306;2022-07-25T11:09:20;3.00;;;1.27;;
29254;SDS011;16277;48.890;2.306;2022-07-25T11:24:35;1.53;;;1.43;;
29254;SDS011;16277;48.890;2.306;2022-07-25T11:39:42;10.00;;;1.70;;
29254;SDS011;16277;48.890;2.306;2022-07-25T11:54:52;3.33;;;1.37;;
29254;SDS011;16277;48.890;2.306;2022-07-25T12:09:57;3.43;;;2.10;;
29254;SDS011;16277;48.890;2.306;2022-07-25T12:25:02;13.20;;;1.77;;
29254;SDS011;16277;48.890;2.306;2022-07-25T12:40:07;5.93;;;0.97;;
29254;SDS011;16277;48.890;2.306;2022-07-25T12:55:13;7.30;;;1.03;;
29254;SDS011;16277;48.890;2.306;2022-07-25T13:10:19;0.80;;;0.70;;
29254;SDS011;16277;48.890;2.306;2022-07-25T13:25:24;108.60;;;6.43;;
29254;SDS011;16277;48.890;2.306;2022-07-25T13:40:28;1.20;;;1.10;;
29254;SDS011;16277;48.890;2.306;2022-07-25T13:55:33;8.03;;;1.90;;
29254;SDS011;16277;48.890;2.306;2022-07-25T14:10:37;1.17;;;0.80;;
29254;SDS011;16277;48.890;2.306;2022-07-25T14:25:42;1.57;;;1.07;;
29254;SDS011;16277;48.890;2.306;2022-07-25T14:40:46;6.47;;;0.77;;
29254;SDS011;16277;48.890;2.306;2022-07-25T14:55:51;11.60;;;0.97;;
29254;SDS011;16277;48.890;2.306;2022-07-25T15:10:55;4.53;;;1.17;;
29254;SDS011;16277;48.890;2.306;2022-07-25T15:25:59;4.97;;;1.00;;
29254;SDS011;16277;48.890;2.306;2022-07-25T15:41:06;1.73;;;1.23;;
29254;SDS011;16277;48.890;2.306;2022-07-25T15:56:13;1.00;;;0.90;;
29254;SDS011;16277;48.890;2.306;2022-07-25T16:11:18;1.97;;;1.03;;
29254;SDS011;16277;48.890;2.306;2022-07-25T16:26:23;1.77;;;0.70;;
29254;SDS011;16277;48.890;2.306;2022-07-25T16:41:27;1.60;;;1.40;;
29254;SDS011;16277;48.890;2.306;2022-07-25T16:56:33;7.97;;;1.17;;
29254;SDS011;16277;48.890;2.306;2022-07-25T17:11:38;2.23;;;1.40;;
29254;SDS011;16277;48.890;2.306;2022-07-25T17:26:42;1.23;;;0.70;;
29254;SDS011;16277;48.890;2.306;2022-07-25T17:41:48;6.47;;;1.30;;
29254;SDS011;16277;48.890;2.306;2022-07-25T17:56:53;7.30;;;0.73;;
29254;SDS011;16277;48.890;2.306;2022-07-25T18:11:58;1.87;;;0.60;;
29254;SDS011;16277;48.890;2.306;2022-07-25T18:27:02;3.00;;;1.17;;
29254;SDS011;16277;48.890;2.306;2022-07-25T18:42:07;13.73;;;3.07;;
29254;SDS011;16277;48.890;2.306;2022-07-25T18:57:12;5.83;;;1.00;;
29254;SDS011;16277;48.890;2.306;2022-07-25T19:12:16;3.00;;;0.83;;
29254;SDS011;16277;48.890;2.306;2022-07-25T19:27:21;0.83;;;0.50;;
29254;SDS011;16277;48.890;2.306;2022-07-25T19:42:27;2.00;;;0.43;;
29254;SDS011;16277;48.890;2.306;2022-07-25T19:57:32;1.23;;;1.13;;
29254;SDS011;16277;48.890;2.306;2022-07-25T20:12:37;0.93;;;0.93;;
29254;SDS011;16277;48.890;2.306;2022-07-25T20:27:41;1.27;;;1.17;;
29254;SDS011;16277;48.890;2.306;2022-07-25T20:42:46;3.53;;;1.10;;
29254;SDS011;16277;48.890;2.306;2022-07-25T20:57:51;1.90;;;1.40;;
29254;SDS011;16277;48.890;2.306;2022-07-25T21:12:55;1.07;;;0.97;;
29254;SDS011;16277;48.890;2.306;2022-07-25T21:28:00;2.27;;;1.40;;
29254;SDS011;16277;48.890;2.306;2022-07-25T21:43:04;1.37;;;1.00;;
29254;SDS011;16277;48.890;2.306;2022-07-25T21:58:14;0.97;;;0.97;;
29254;SDS011;16277;48.890;2.306;2022-07-25T22:13:19;6.03;;;1.50;;
29254;SDS011;16277;48.890;2.306;2022-07-25T22:28:23;2.87;;;1.20;;
29254;SDS011;16277;48.890;2.306;2022-07-25T22:43:28;1.33;;;1.23;;
29254;SDS011;16277;48.890;2.306;2022-07-25T22:58:52;1.87;;;1.77;;
29254;SDS011;16277;48.890;2.306;2022-07-25T23:13:57;1.77;;;1.67;;
29254;SDS011;16277;48.890;2.306;2022-07-25T23:29:01;2.13;;;1.87;;
29254;SDS011;16277;48.890;2.306;2022-07-25T23:44:06;4.00;;;1.50;;
29254;SDS011;16277;48.890;2.306;2022-07-25T23:59:13;12.23;;;2.00;;
